Ozona, TX

7:30 PM CDT on April 29, 2017 (GMT -0500)
Ozona Municipal

Weather History for KOZA - February, 2013

Change the Weather History Date:

Friday, February 15, 2013

  Actual Average Record
Temperature  
Mean Temperature 42 °F -  
Max Temperature 53 °F 66 °F 78 °F (2014)
Min Temperature 30 °F 36 °F 30 °F (2013)
Degree Days  
Heating Degree Days 24    
Moisture  
Dew Point 28 °F    
Average Humidity 57    
Maximum Humidity 81    
Minimum Humidity 42    
Precipitation  
Precipitation 0.00 in - - ()
Sea Level Pressure  
Sea Level Pressure 30.28 in    
Wind  
Wind Speed 10 mph (NE)    
Max Wind Speed 22 mph    
Max Gust Speed 29 mph    
Visibility 10 miles    
Events      
Averages and records for this station are not official NWS values.
T = Trace of Precipitation, MM = Missing Value Source: NWS Daily Summary

Daily Weather History Graph

Daily Weather History Graph

Search for Another Location

Airport or City:

Trip Planner

Search our weather history database for the weather conditions in past years. The results will help you decide how hot, cold, wet, or windy it might be!

Date:

Astronomy

Feb. 15, 2013 Rise Set
Actual Time 7:25 AM CST 6:33 PM CST
Civil Twilight 7:00 AM CST 6:57 PM CST
Nautical Twilight 6:32 AM CST 7:25 PM CST
Astronomical Twilight 6:04 AM CST 7:54 PM CST
Moon 10:29 AM CST (2/15) No Moon Set
Length of Visible Light 11h 57m
Length of Day
11h 07m
Waxing Crescent, 30% of the Moon is Illuminated
Feb 15
Waxing Crescent
Feb 17
First Quarter
Feb 25
Full
Mar 4
Last Quarter
Mar 11
New

Hourly Weather History & Observations

Time (CST) Temp. Windchill Dew Point Humidity Pressure Visibility Wind Dir Wind Speed Gust Speed Precip Events Conditions
12:15 AM 33.8 °F 28.6 °F 15.8 °F 48% 30.08 in 10.0 mi NNE 5.8 mph - N/A   Clear
12:35 AM 33.8 °F 28.6 °F 15.8 °F 48% 30.09 in 10.0 mi NNE 5.8 mph - N/A   Clear
12:55 AM 33.8 °F 28.6 °F 15.8 °F 48% 30.09 in 10.0 mi NNE 5.8 mph - N/A   Clear
1:15 AM 33.8 °F - 17.6 °F 52% 30.09 in 10.0 mi Calm Calm - N/A   Clear
1:35 AM 33.8 °F 30.8 °F 17.6 °F 52% 30.09 in 10.0 mi NE 3.5 mph - N/A   Clear
1:55 AM 33.8 °F 24.3 °F 17.6 °F 52% 30.10 in 10.0 mi North 13.8 mph - N/A   Clear
2:15 AM 33.8 °F 27.0 °F 17.6 °F 52% 30.11 in 10.0 mi NNE 8.1 mph - N/A   Clear
2:35 AM 42.8 °F 35.8 °F 21.2 °F 42% 30.13 in 10.0 mi NNE 13.8 mph - N/A   Clear
2:55 AM 42.8 °F 37.5 °F 23.0 °F 46% 30.14 in 10.0 mi NNE 9.2 mph - N/A   Clear
3:15 AM 42.8 °F 36.6 °F 26.6 °F 53% 30.15 in 10.0 mi NNE 11.5 mph - N/A   Clear
3:35 AM 42.8 °F 37.5 °F 28.4 °F 57% 30.16 in 10.0 mi NNE 9.2 mph - N/A   Clear
3:55 AM 41.0 °F 33.5 °F 30.2 °F 65% 30.16 in 10.0 mi NNE 13.8 mph - N/A   Clear
4:15 AM 41.0 °F 33.5 °F 32.0 °F 70% 30.17 in 10.0 mi NNE 13.8 mph - N/A   Clear
4:35 AM 41.0 °F 33.5 °F 32.0 °F 70% 30.18 in 10.0 mi NE 13.8 mph - N/A   Clear
4:55 AM 41.0 °F 33.9 °F 32.0 °F 70% 30.19 in 10.0 mi NNE 12.7 mph - N/A   Clear
5:15 AM 41.0 °F 32.8 °F 32.0 °F 70% 30.20 in 10.0 mi NE 16.1 mph 20.7 mph N/A   Clear
5:35 AM 41.0 °F 32.8 °F 32.0 °F 70% 30.21 in 10.0 mi NE 16.1 mph 21.9 mph N/A   Clear
5:55 AM 41.0 °F 32.8 °F 32.0 °F 70% 30.22 in 10.0 mi NNE 16.1 mph 20.7 mph N/A   Clear
6:15 AM 39.2 °F 31.2 °F 32.0 °F 75% 30.23 in 10.0 mi NNE 13.8 mph 20.7 mph N/A   Clear
6:35 AM 39.2 °F 30.8 °F 32.0 °F 75% 30.24 in 10.0 mi NNE 15.0 mph 19.6 mph N/A   Clear
6:55 AM 39.2 °F 31.6 °F 32.0 °F 75% 30.25 in 10.0 mi NNE 12.7 mph 20.7 mph N/A   Clear
7:15 AM 37.4 °F 29.3 °F 32.0 °F 81% 30.26 in 10.0 mi NNE 12.7 mph 18.4 mph N/A   Clear
7:35 AM 37.4 °F 29.3 °F 32.0 °F 81% 30.28 in 10.0 mi NNE 12.7 mph 17.3 mph N/A   Clear
7:55 AM 37.4 °F 29.3 °F 32.0 °F 81% 30.28 in 10.0 mi NNE 12.7 mph - N/A   Clear
8:15 AM 39.2 °F 32.5 °F 32.0 °F 75% 30.29 in 10.0 mi NNE 10.4 mph 16.1 mph N/A   Clear
8:35 AM 41.0 °F 33.1 °F 32.0 °F 70% 30.30 in 10.0 mi NNE 15.0 mph - N/A   Clear
8:55 AM 41.0 °F 31.9 °F 32.0 °F 70% 30.31 in 10.0 mi NNE 19.6 mph 23.0 mph N/A   Clear
9:15 AM 42.8 °F 34.0 °F 32.0 °F 66% 30.31 in 10.0 mi NE 20.7 mph 26.5 mph N/A   Clear
9:35 AM 42.8 °F 34.3 °F 32.0 °F 66% 30.32 in 10.0 mi NE 19.6 mph 26.5 mph N/A   Clear
9:55 AM 44.6 °F 36.1 °F 32.0 °F 61% 30.32 in 10.0 mi NE 21.9 mph 25.3 mph N/A   Clear
10:15 AM 44.6 °F 36.9 °F 32.0 °F 61% 30.32 in 10.0 mi NE 18.4 mph 26.5 mph N/A   Scattered Clouds
10:35 AM 46.4 °F 39.2 °F 32.0 °F 57% 30.33 in 10.0 mi NNE 18.4 mph 25.3 mph N/A   Scattered Clouds
10:55 AM 46.4 °F 38.7 °F 32.0 °F 57% 30.33 in 10.0 mi NE 20.7 mph 28.8 mph N/A   Scattered Clouds
11:15 AM 46.4 °F 40.7 °F 32.0 °F 57% 30.33 in 10.0 mi ENE 12.7 mph 28.8 mph N/A   Scattered Clouds
11:55 AM 50.0 °F - 32.0 °F 50% 30.33 in 10.0 mi ENE 16.1 mph 20.7 mph N/A   Scattered Clouds
12:15 PM 50.0 °F - 32.0 °F 50% 30.33 in 10.0 mi NE 16.1 mph 19.6 mph N/A   Scattered Clouds
12:35 PM 50.0 °F - 32.0 °F 50% 30.32 in 10.0 mi NE 19.6 mph 24.2 mph N/A   Scattered Clouds
12:55 PM 51.8 °F - 32.0 °F 47% 30.31 in 10.0 mi NNE 13.8 mph 23.0 mph N/A   Scattered Clouds
1:15 PM 51.8 °F - 32.0 °F 47% 30.29 in 10.0 mi NE 12.7 mph 24.2 mph N/A   Scattered Clouds
1:35 PM 51.8 °F - 32.0 °F 47% 30.28 in 10.0 mi NNE 17.3 mph 20.7 mph N/A   Scattered Clouds
1:55 PM 53.6 °F - 32.0 °F 44% 30.28 in 10.0 mi NNE 11.5 mph 21.9 mph N/A   Scattered Clouds
2:15 PM 51.8 °F - 32.0 °F 47% 30.28 in 10.0 mi NNE 16.1 mph - N/A   Mostly Cloudy
2:35 PM 51.8 °F - 32.0 °F 47% 30.27 in 10.0 mi NNE 19.6 mph 24.2 mph N/A   Mostly Cloudy
2:55 PM 51.8 °F - 32.0 °F 47% 30.28 in 10.0 mi NE 13.8 mph 19.6 mph N/A   Mostly Cloudy
3:15 PM 51.8 °F - 32.0 °F 47% 30.27 in 10.0 mi NE 15.0 mph 23.0 mph N/A   Mostly Cloudy
3:35 PM 51.8 °F - 32.0 °F 47% 30.28 in 10.0 mi NNE 10.4 mph 13.8 mph N/A   Scattered Clouds
3:55 PM 51.8 °F - 32.0 °F 47% 30.28 in 10.0 mi NE 6.9 mph - N/A   Scattered Clouds
4:15 PM 51.8 °F - 32.0 °F 47% 30.28 in 10.0 mi NNE 11.5 mph 19.6 mph N/A   Scattered Clouds
4:35 PM 51.8 °F - 32.0 °F 47% 30.28 in 10.0 mi NE 11.5 mph 18.4 mph N/A   Scattered Clouds
4:55 PM 51.8 °F - 32.0 °F 47% 30.28 in 10.0 mi NE 10.4 mph - N/A   Scattered Clouds
5:15 PM 51.8 °F - 32.0 °F 47% 30.29 in 10.0 mi ENE 9.2 mph 19.6 mph N/A   Mostly Cloudy
5:35 PM 50.0 °F - 32.0 °F 50% 30.29 in 10.0 mi NE 9.2 mph - N/A   Mostly Cloudy
5:55 PM 50.0 °F - 32.0 °F 50% 30.30 in 10.0 mi NE 11.5 mph - N/A   Mostly Cloudy
6:15 PM 50.0 °F - 32.0 °F 50% 30.31 in 10.0 mi NE 10.4 mph - N/A   Scattered Clouds
6:35 PM 50.0 °F - 32.0 °F 50% 30.31 in 10.0 mi NE 10.4 mph 16.1 mph N/A   Scattered Clouds
6:55 PM 50.0 °F - 30.2 °F 47% 30.33 in 10.0 mi ENE 10.4 mph - N/A   Scattered Clouds
7:15 PM 48.2 °F - 28.4 °F 46% 30.33 in 10.0 mi ENE 9.2 mph - N/A   Scattered Clouds
7:35 PM 46.4 °F 42.9 °F 28.4 °F 50% 30.36 in 10.0 mi NE 6.9 mph - N/A   Clear
7:55 PM 44.6 °F 40.2 °F 26.6 °F 49% 30.37 in 10.0 mi NNE 8.1 mph - N/A   Scattered Clouds
8:15 PM 44.6 °F 39.7 °F 23.0 °F 43% 30.38 in 10.0 mi NE 9.2 mph - N/A   Scattered Clouds
8:35 PM 42.8 °F 38.0 °F 23.0 °F 46% 30.40 in 10.0 mi NE 8.1 mph - N/A   Clear
8:55 PM 41.0 °F 37.1 °F 23.0 °F 49% 30.39 in 10.0 mi NE 5.8 mph - N/A   Clear
9:15 PM 39.2 °F 35.9 °F 23.0 °F 52% 30.40 in 10.0 mi North 4.6 mph - N/A   Clear
9:35 PM 37.4 °F 33.8 °F 23.0 °F 56% 30.40 in 10.0 mi NNE 4.6 mph - N/A   Clear
9:55 PM 37.4 °F 32.8 °F 23.0 °F 56% 30.40 in 10.0 mi North 5.8 mph - N/A   Clear
10:15 PM 33.8 °F 29.6 °F 23.0 °F 65% 30.41 in 10.0 mi NNE 4.6 mph - N/A   Clear
10:35 PM 33.8 °F - 23.0 °F 65% 30.41 in 10.0 mi Calm Calm - N/A   Clear
10:55 PM 33.8 °F - 23.0 °F 65% 30.42 in 10.0 mi Calm Calm - N/A   Clear
11:15 PM 32.0 °F - 21.2 °F 64% 30.43 in 10.0 mi Calm Calm - N/A   Clear
11:35 PM 30.2 °F - 21.2 °F 69% 30.42 in 10.0 mi Calm Calm - N/A   Clear
11:55 PM 30.2 °F - 21.2 °F 69% 30.42 in 10.0 mi Calm Calm - N/A   Clear